Time;durP1;ratioP1;P1;durP2;ratioP2;P2;SDS_P1;SDS_P2;PMS_P1;PMS_P2;Temp;Humidity;BMP_temperature;BMP_pressure;BME280_temperature;BME280_humidity;BME280_pressure;Samples;Min_cycle;Max_cycle;Signal;HPM_P1;HPM_P2
2021/10/19 00:00:33;;;;;;;28.83;16.23;;;;;;;7.49;94.44;100047.04;4206024;81;20981;-82
2021/10/19 00:06:36;;;;;;;28.10;16.65;;;;;;;7.44;94.27;100046.66;4198679;83;22352;-81
2021/10/19 00:12:39;;;;;;;32.28;18.73;;;;;;;7.32;93.92;100050.66;4188171;83;21074;-84
2021/10/19 00:18:41;;;;;;;24.07;13.15;;;;;;;7.31;94.47;100050.98;4207999;83;21062;-84
2021/10/19 00:24:43;;;;;;;29.37;15.70;;;;;;;7.28;94.43;100051.06;4198911;83;21516;-82
2021/10/19 00:30:47;;;;;;;30.48;17.40;;;;;;;7.24;94.35;100053.41;4199414;83;21595;-82
2021/10/19 00:36:49;;;;;;;31.37;19.00;;;;;;;7.17;94.77;100059.95;4198276;83;21097;-81
2021/10/19 00:42:50;;;;;;;29.90;17.30;;;;;;;7.32;95.17;100054.75;4200722;83;21162;-82
2021/10/19 00:48:52;;;;;;;22.60;12.63;;;;;;;7.39;95.02;100065.14;4204964;83;20997;-81
2021/10/19 00:54:56;;;;;;;24.85;12.40;;;;;;;7.41;95.14;100068.31;4220366;83;21135;-82
2021/10/19 01:00:58;;;;;;;22.67;13.40;;;;;;;7.45;95.12;100059.73;4207627;83;21090;-82
2021/10/19 01:07:01;;;;;;;23.30;14.53;;;;;;;7.46;95.03;100062.69;4230665;83;21635;-82
2021/10/19 01:13:05;;;;;;;28.70;14.68;;;;;;;7.41;94.88;100063.67;4234511;83;21140;-82
2021/10/19 01:19:07;;;;;;;29.65;14.93;;;;;;;7.33;95.00;100056.92;4209325;82;21663;-82
2021/10/19 01:25:10;;;;;;;27.37;15.25;;;;;;;7.36;95.34;100044.78;4237556;81;21525;-83
2021/10/19 01:31:12;;;;;;;28.10;16.85;;;;;;;7.33;94.89;100040.58;4231975;83;21054;-83
2021/10/19 01:37:14;;;;;;;30.82;17.02;;;;;;;7.27;95.44;100042.67;4218906;83;21871;-82
2021/10/19 01:43:21;;;;;;;27.55;15.63;;;;;;;7.31;95.60;100035.42;4233474;83;21486;-82
2021/10/19 01:49:22;;;;;;;27.48;14.83;;;;;;;7.30;95.50;100024.31;4219516;83;21038;-82
2021/10/19 01:55:24;;;;;;;25.50;14.83;;;;;;;7.34;95.45;100010.84;4184209;82;21213;-82
2021/10/19 02:01:27;;;;;;;27.75;15.08;;;;;;;7.35;95.37;100003.70;4171747;84;21118;-82
2021/10/19 02:07:29;;;;;;;23.85;14.30;;;;;;;7.29;95.21;100002.84;4171422;84;21051;-82
2021/10/19 02:13:33;;;;;;;25.15;13.25;;;;;;;7.23;95.28;100006.89;4164390;84;21123;-82
2021/10/19 02:19:34;;;;;;;24.35;14.25;;;;;;;7.22;95.35;99997.91;4174027;83;38767;-82
2021/10/19 02:25:36;;;;;;;23.27;13.08;;;;;;;7.19;95.24;99987.68;4204884;83;21047;-85
2021/10/19 02:31:38;;;;;;;31.20;14.87;;;;;;;7.13;95.16;99990.91;4218372;83;21028;-82
2021/10/19 02:37:42;;;;;;;26.05;13.20;;;;;;;7.04;95.09;99988.25;4209045;83;21150;-82
2021/10/19 02:43:43;;;;;;;25.45;14.23;;;;;;;6.93;95.06;99987.56;4200474;83;21552;-81
2021/10/19 02:49:45;;;;;;;26.35;13.05;;;;;;;6.88;95.30;99991.83;4202903;83;20997;-82
2021/10/19 02:55:46;;;;;;;25.25;14.20;;;;;;;6.87;95.52;99984.80;4192779;83;22232;-82
2021/10/19 03:08:27;;;;;;;23.87;13.78;;;;;;;6.82;95.56;99988.50;4191293;83;21058;-82
2021/10/19 03:21:36;;;;;;;19.90;11.57;;;;;;;6.68;95.36;99993.34;4136465;81;75041;-84
2021/10/19 03:27:37;;;;;;;22.13;12.37;;;;;;;6.65;95.56;99985.03;4161577;83;20989;-83
2021/10/19 03:33:39;;;;;;;26.48;13.20;;;;;;;6.64;95.55;99985.58;4185256;83;21088;-83
2021/10/19 03:39:41;;;;;;;30.08;15.00;;;;;;;6.53;95.13;99982.20;4081301;85;21096;-83
2021/10/19 03:45:42;;;;;;;21.80;11.28;;;;;;;6.46;95.80;99985.95;4174744;83;21168;-83
2021/10/19 03:51:43;;;;;;;21.20;11.90;;;;;;;6.55;96.16;99985.37;4147147;82;40338;-83
2021/10/19 03:57:44;;;;;;;23.05;12.60;;;;;;;6.64;96.06;99975.28;4132057;86;21080;-82
2021/10/19 04:03:46;;;;;;;18.30;10.75;;;;;;;6.62;95.36;99973.44;4122013;85;21569;-83
2021/10/19 04:09:47;;;;;;;25.32;12.93;;;;;;;6.44;95.00;99968.60;4058101;87;21547;-83
2021/10/19 04:15:57;;;;;;;21.23;13.20;;;;;;;6.20;95.07;99971.08;4135206;85;21567;-83
2021/10/19 04:21:58;;;;;;;22.22;12.47;;;;;;;6.09;94.88;99973.88;4056181;86;21991;-83
2021/10/19 04:28:00;;;;;;;26.05;13.65;;;;;;;5.99;95.01;99985.07;4028308;88;21001;-83
2021/10/19 04:34:05;;;;;;;28.73;14.95;;;;;;;5.91;94.98;99981.25;4016747;87;21075;-83
2021/10/19 04:40:08;;;;;;;23.42;13.35;;;;;;;5.77;94.78;99978.41;4023890;87;21120;-83
2021/10/19 04:46:11;;;;;;;25.12;12.43;;;;;;;5.61;94.76;99967.22;4033246;87;22298;-83
2021/10/19 04:52:13;;;;;;;22.70;13.60;;;;;;;5.49;94.55;99978.46;4096217;86;21499;-83
2021/10/19 04:58:15;;;;;;;29.67;16.10;;;;;;;5.49;95.15;99975.75;4091753;85;21099;-83
2021/10/19 05:04:17;;;;;;;30.10;16.48;;;;;;;5.49;95.00;99966.24;4075280;86;21043;-83
2021/10/19 05:10:26;;;;;;;22.27;12.43;;;;;;;5.38;94.73;99964.95;4113319;86;21113;-83
2021/10/19 05:16:27;;;;;;;30.65;14.75;;;;;;;5.22;94.70;99970.58;4132616;86;21539;-83
2021/10/19 05:22:28;;;;;;;25.65;14.43;;;;;;;5.20;95.00;99980.97;4130581;84;21029;-83
2021/10/19 05:28:30;;;;;;;30.05;15.38;;;;;;;5.27;95.24;99988.08;4207424;83;21433;-83
2021/10/19 05:34:32;;;;;;;28.52;14.28;;;;;;;5.30;94.84;99980.66;4202274;83;21075;-83
2021/10/19 05:40:33;;;;;;;24.23;14.40;;;;;;;5.16;94.69;99993.02;4201214;83;20993;-83
2021/10/19 05:46:37;;;;;;;26.00;15.03;;;;;;;5.20;95.25;99994.55;4173393;83;26643;-83
2021/10/19 05:52:42;;;;;;;27.82;14.03;;;;;;;5.23;95.09;100010.98;4176369;83;21101;-83
2021/10/19 05:58:44;;;;;;;31.80;14.87;;;;;;;5.28;95.35;100015.49;4196006;83;21528;-83
2021/10/19 06:04:45;;;;;;;26.52;14.20;;;;;;;5.29;95.23;100017.89;4222284;83;21587;-83
2021/10/19 06:10:47;;;;;;;25.23;12.30;;;;;;;5.38;95.64;100026.85;4228354;81;28556;-83
2021/10/19 06:16:48;;;;;;;26.27;14.20;;;;;;;5.48;96.02;100041.48;4241985;81;21095;-83
2021/10/19 06:22:49;;;;;;;24.90;12.20;;;;;;;5.76;96.50;100044.74;4235511;81;21055;-83
2021/10/19 06:28:51;;;;;;;23.65;14.73;;;;;;;5.99;96.52;100055.19;4243520;82;21094;-83
2021/10/19 06:34:52;;;;;;;21.35;13.40;;;;;;;6.18;96.40;100050.79;4260754;82;21083;-83
2021/10/19 06:40:53;;;;;;;22.00;12.73;;;;;;;6.39;96.65;100050.36;4265275;82;21586;-84
2021/10/19 06:46:54;;;;;;;19.55;11.90;;;;;;;6.59;96.58;100040.20;4253425;82;21009;-83
2021/10/19 06:52:56;;;;;;;26.10;13.18;;;;;;;6.84;96.74;100038.52;4249157;82;21139;-84
2021/10/19 06:58:57;;;;;;;25.32;14.43;;;;;;;7.05;96.90;100036.11;4246024;82;21090;-83
2021/10/19 07:04:58;;;;;;;25.75;15.28;;;;;;;7.36;96.99;100033.88;4261766;82;21083;-83
2021/10/19 07:11:00;;;;;;;24.98;12.30;;;;;;;7.97;97.73;100031.03;4257591;82;21105;-83
2021/10/19 07:17:01;;;;;;;22.27;11.80;;;;;;;8.46;97.09;100036.14;4247742;82;21079;-84
2021/10/19 07:23:03;;;;;;;19.37;11.80;;;;;;;8.87;96.34;100030.58;4221990;82;21651;-84
2021/10/19 07:29:05;;;;;;;23.12;15.45;;;;;;;9.32;95.86;100028.58;4210620;83;21887;-84
2021/10/19 07:35:08;;;;;;;25.05;14.83;;;;;;;9.72;95.64;100014.44;4217167;83;21566;-84
2021/10/19 07:41:19;;;;;;;23.07;13.43;;;;;;;10.11;94.99;100006.84;4215573;82;21036;-83
2021/10/19 07:47:18;;;;;;;13.00;8.53;;;;;;;10.40;94.70;100005.69;4216244;83;21047;-83
2021/10/19 07:53:20;;;;;;;20.88;8.58;;;;;;;10.86;94.35;100013.20;4218712;82;21630;-84
2021/10/19 07:59:23;;;;;;;23.32;8.10;;;;;;;11.17;93.60;99994.59;4206452;83;21048;-85
2021/10/19 08:05:26;;;;;;;17.57;10.03;;;;;;;11.50;92.63;100002.66;4209899;82;21123;-84
2021/10/19 08:11:28;;;;;;;11.80;7.30;;;;;;;11.96;92.45;100000.98;4220224;82;21015;-84
2021/10/19 08:17:29;;;;;;;14.83;7.12;;;;;;;12.48;91.49;99993.81;4028458;87;21044;-85
2021/10/19 08:23:30;;;;;;;10.32;6.33;;;;;;;13.34;92.59;99992.20;4207173;83;21057;-85
2021/10/19 08:29:35;;;;;;;8.65;5.83;;;;;;;14.58;91.93;99982.30;4209196;82;21000;-85
2021/10/19 08:35:37;;;;;;;9.98;5.67;;;;;;;15.55;90.56;99979.63;4218728;83;21687;-85
2021/10/19 08:41:38;;;;;;;7.47;5.00;;;;;;;16.16;88.82;99984.30;4220567;83;21048;-85
2021/10/19 08:47:54;;;;;;;12.30;5.42;;;;;;;16.81;87.14;99991.84;4021750;87;21078;-85
2021/10/19 08:54:25;;;;;;;9.35;6.03;;;;;;;17.77;86.69;100003.14;4085994;85;21108;-85
2021/10/19 09:00:27;;;;;;;9.88;6.40;;;;;;;18.44;85.17;99996.81;4127760;84;21079;-84
2021/10/19 09:06:33;;;;;;;8.35;6.20;;;;;;;19.09;82.93;99979.34;4143229;85;21027;-83
2021/10/19 09:12:34;;;;;;;12.85;8.15;;;;;;;19.06;72.53;99988.48;4137149;84;21077;-84
2021/10/19 09:18:35;;;;;;;11.93;8.08;;;;;;;18.82;78.09;99986.70;4214212;83;21099;-84
2021/10/19 09:24:45;;;;;;;10.43;6.97;;;;;;;19.54;77.73;99991.31;4048209;86;21584;-86
2021/10/19 09:30:55;;;;;;;8.50;6.30;;;;;;;20.25;76.34;99981.64;4170950;83;21060;-85
2021/10/19 09:37:05;;;;;;;10.98;6.05;;;;;;;20.32;74.39;99984.31;4115381;85;21644;-84
2021/10/19 09:43:16;;;;;;;12.30;8.73;;;;;;;20.00;74.94;99986.05;4109886;85;21577;-85
2021/10/19 09:49:18;;;;;;;13.85;8.20;;;;;;;20.53;73.01;99977.87;4050157;86;21135;-85
2021/10/19 09:55:24;;;;;;;12.30;7.90;;;;;;;20.43;72.60;99966.89;4129082;84;21309;-84
2021/10/19 10:01:27;;;;;;;12.55;8.05;;;;;;;20.59;70.29;99969.27;4134637;84;21041;-85
2021/10/19 10:07:30;;;;;;;13.55;8.08;;;;;;;19.90;70.37;99967.52;4136917;84;21084;-85
2021/10/19 10:13:35;;;;;;;11.97;7.37;;;;;;;19.56;69.70;99953.58;4169768;84;21130;-83
2021/10/19 10:19:45;;;;;;;18.90;8.58;;;;;;;19.72;67.79;99946.08;4046947;86;21079;-83
2021/10/19 10:25:55;;;;;;;10.68;6.58;;;;;;;18.91;64.76;99944.02;4151276;84;21044;-84
2021/10/19 10:31:57;;;;;;;9.70;6.85;;;;;;;19.19;65.72;99938.83;4154463;84;21067;-84
2021/10/19 10:38:03;;;;;;;9.65;6.50;;;;;;;18.87;64.84;99921.05;4151415;84;21119;-84
2021/10/19 10:44:05;;;;;;;6.72;5.12;;;;;;;18.58;64.64;99914.94;4151101;84;21036;-83
2021/10/19 10:50:08;;;;;;;8.48;4.97;;;;;;;18.12;64.94;99905.28;4152473;84;21052;-86
2021/10/19 10:56:11;;;;;;;12.50;5.97;;;;;;;18.05;65.52;99900.56;4146444;84;21631;-84
2021/10/19 11:02:12;;;;;;;6.03;4.25;;;;;;;18.21;64.61;99898.70;4156133;84;21108;-85
2021/10/19 11:08:23;;;;;;;7.55;4.25;;;;;;;18.11;64.43;99901.72;4122380;83;21013;-84
2021/10/19 11:14:26;;;;;;;4.95;3.37;;;;;;;18.06;63.85;99888.27;4086307;85;21086;-84
2021/10/19 11:20:30;;;;;;;4.80;3.00;;;;;;;17.89;63.64;99874.50;4096868;85;21144;-84
2021/10/19 11:26:34;;;;;;;4.28;2.80;;;;;;;17.47;61.54;99871.88;4113116;84;21109;-84
2021/10/19 11:32:40;;;;;;;3.90;2.80;;;;;;;17.64;62.01;99853.04;4179421;83;21332;-84
2021/10/19 11:38:51;;;;;;;4.30;2.87;;;;;;;17.62;61.73;99852.06;4170465;84;21066;-84
2021/10/19 11:45:09;;;;;;;;;;;;;;;;;;;;;
2021/10/19 11:51:11;;;;;;;6.47;2.22;;;;;;;17.39;61.18;99821.27;4151906;84;21067;-84
2021/10/19 11:57:13;;;;;;;6.35;2.60;;;;;;;17.17;60.97;99819.75;4247832;82;21581;-83
2021/10/19 12:03:14;;;;;;;5.33;3.20;;;;;;;17.15;60.33;99808.28;4249875;83;21520;-83
2021/10/19 12:09:27;;;;;;;4.55;3.02;;;;;;;16.93;60.92;99803.98;4254863;83;22181;-84
2021/10/19 12:15:32;;;;;;;7.30;3.35;;;;;;;16.97;60.51;99793.72;4253059;83;21561;-84
2021/10/19 12:21:34;;;;;;;2.75;1.50;;;;;;;16.97;59.88;99779.30;4232596;83;21086;-84
2021/10/19 12:27:38;;;;;;;3.75;1.90;;;;;;;16.97;59.69;99774.36;4225800;83;21052;-84
2021/10/19 12:33:39;;;;;;;9.43;2.92;;;;;;;17.09;60.08;99757.33;4219140;83;21057;-83
2021/10/19 12:39:54;;;;;;;2.47;1.42;;;;;;;17.18;60.40;99741.09;4217891;83;21056;-83
2021/10/19 12:45:55;;;;;;;3.60;1.90;;;;;;;17.29;59.35;99754.28;4044422;86;21044;-83
2021/10/19 12:52:18;;;;;;;9.10;2.58;;;;;;;17.23;58.53;99750.97;4224062;83;21072;-83
2021/10/19 12:58:21;;;;;;;12.55;2.22;;;;;;;17.14;59.05;99745.86;4223538;83;21040;-83
2021/10/19 13:04:23;;;;;;;12.65;2.22;;;;;;;17.00;58.40;99721.80;4225886;83;21101;-83
2021/10/19 13:10:24;;;;;;;8.88;2.87;;;;;;;16.89;58.17;99711.37;4206275;83;21044;-83
2021/10/19 13:16:26;;;;;;;20.00;2.62;;;;;;;16.87;58.48;99714.32;4225521;83;21099;-83
2021/10/19 13:22:28;;;;;;;7.72;1.95;;;;;;;16.75;58.77;99723.84;4209546;83;21010;-83
2021/10/19 13:28:30;;;;;;;5.15;2.12;;;;;;;16.74;58.50;99730.55;4210673;83;21009;-84
2021/10/19 13:34:33;;;;;;;14.03;2.62;;;;;;;16.60;57.72;99735.33;4206294;83;20982;-83
2021/10/19 13:40:35;;;;;;;5.80;2.17;;;;;;;16.54;57.63;99710.05;4219865;82;20973;-84
2021/10/19 13:46:36;;;;;;;7.87;1.90;;;;;;;16.42;57.63;99706.88;4209484;82;20982;-84
2021/10/19 13:52:38;;;;;;;4.08;2.17;;;;;;;16.30;57.95;99710.06;4228110;82;21060;-84
2021/10/19 13:58:41;;;;;;;4.37;2.08;;;;;;;16.23;58.21;99704.52;4192762;83;21069;-84
2021/10/19 14:04:46;;;;;;;6.10;2.45;;;;;;;16.28;58.05;99711.03;4220406;83;21112;-84
2021/10/19 14:10:52;;;;;;;5.62;2.33;;;;;;;16.30;58.03;99715.58;4219625;82;21548;-83
2021/10/19 14:16:52;;;;;;;4.28;2.02;;;;;;;16.38;57.87;99703.34;4212434;83;21072;-84
2021/10/19 14:22:55;;;;;;;4.00;2.02;;;;;;;16.47;57.65;99694.08;4201051;82;21565;-84
2021/10/19 14:28:57;;;;;;;6.17;2.80;;;;;;;16.46;57.82;99704.34;4209380;83;21055;-84
2021/10/19 14:35:00;;;;;;;6.87;2.75;;;;;;;16.40;57.72;99708.66;4218562;82;21060;-85
2021/10/19 14:41:02;;;;;;;9.65;3.15;;;;;;;16.32;57.65;99709.84;4220185;82;21052;-82
2021/10/19 14:47:06;;;;;;;8.65;3.90;;;;;;;16.25;57.63;99701.58;4217613;82;21052;-82
2021/10/19 14:53:07;;;;;;;8.90;4.05;;;;;;;16.07;57.73;99682.83;4217003;82;21105;-82
2021/10/19 14:59:08;;;;;;;7.60;3.30;;;;;;;15.93;58.06;99666.25;4229818;82;21016;-83
2021/10/19 15:05:09;;;;;;;5.97;3.25;;;;;;;15.85;58.52;99662.52;4211752;83;20981;-83
2021/10/19 15:11:11;;;;;;;6.95;3.17;;;;;;;15.74;58.63;99663.10;4206716;83;21017;-82
2021/10/19 15:17:12;;;;;;;6.60;3.30;;;;;;;15.57;59.04;99658.55;4201539;83;21568;-82
2021/10/19 15:23:14;;;;;;;5.45;3.27;;;;;;;15.41;59.16;99669.14;4220940;83;21087;-82
2021/10/19 15:29:15;;;;;;;9.65;4.17;;;;;;;15.23;59.49;99668.88;4216399;82;21352;-84
2021/10/19 15:35:16;;;;;;;9.58;4.97;;;;;;;15.06;59.84;99671.78;4015128;87;21558;-83
2021/10/19 15:41:18;;;;;;;8.83;4.78;;;;;;;14.97;60.26;99685.11;4016471;87;21103;-83
2021/10/19 15:47:19;;;;;;;7.53;5.10;;;;;;;14.80;60.53;99678.93;4014470;87;21056;-83
2021/10/19 15:53:21;;;;;;;11.20;5.92;;;;;;;14.65;60.98;99678.67;4020162;87;21662;-83
2021/10/19 15:59:25;;;;;;;14.23;9.60;;;;;;;14.49;61.16;99681.50;4018496;87;21009;-83
2021/10/19 16:05:26;;;;;;;11.35;8.00;;;;;;;14.35;61.51;99685.55;4216794;82;21060;-83
2021/10/19 16:11:28;;;;;;;20.88;11.12;;;;;;;14.17;62.03;99677.15;4152554;85;21888;-83
2021/10/19 16:17:30;;;;;;;22.85;14.63;;;;;;;13.89;62.46;99680.44;4215000;83;21509;-83
2021/10/19 16:23:31;;;;;;;27.67;15.23;;;;;;;13.63;62.64;99688.86;4208871;82;21541;-83
2021/10/19 16:29:38;;;;;;;28.65;17.80;;;;;;;13.44;63.52;99688.25;4212106;82;21029;-83
2021/10/19 16:35:39;;;;;;;24.40;15.18;;;;;;;13.24;63.93;99695.11;4219830;82;21075;-82
2021/10/19 16:41:41;;;;;;;21.52;12.53;;;;;;;13.12;64.65;99698.91;4224802;82;21067;-82
2021/10/19 16:47:43;;;;;;;19.87;12.35;;;;;;;13.05;64.71;99702.14;4223702;83;21551;-82
2021/10/19 16:53:45;;;;;;;18.92;11.68;;;;;;;12.93;64.83;99693.53;4205092;82;21057;-82
2021/10/19 16:59:49;;;;;;;19.87;11.45;;;;;;;12.75;65.11;99688.37;4214978;83;21299;-81
2021/10/19 17:05:55;;;;;;;17.17;10.18;;;;;;;12.58;65.28;99692.48;4232210;82;21448;-82
2021/10/19 17:11:56;;;;;;;18.62;9.15;;;;;;;12.47;65.68;99689.36;4211152;83;20992;-82
2021/10/19 17:18:03;;;;;;;15.32;8.98;;;;;;;12.32;65.91;99682.86;4217398;83;21047;-82
2021/10/19 17:24:17;;;;;;;15.15;9.90;;;;;;;12.19;66.31;99684.82;4207427;82;21068;-83
2021/10/19 17:30:19;;;;;;;16.32;10.48;;;;;;;12.01;67.01;99687.28;4214760;83;21606;-83
2021/10/19 17:36:20;;;;;;;17.40;11.68;;;;;;;11.93;67.81;99690.29;4201890;83;21537;-82
2021/10/19 17:42:28;;;;;;;25.50;15.85;;;;;;;11.69;67.98;99685.16;4216051;83;21076;-82
2021/10/19 17:48:29;;;;;;;21.50;13.08;;;;;;;11.52;68.50;99685.05;4204696;83;21508;-82
2021/10/19 17:54:33;;;;;;;16.90;9.83;;;;;;;11.37;68.89;99676.33;4202502;83;21566;-82
2021/10/19 18:00:35;;;;;;;23.18;14.85;;;;;;;11.23;68.98;99672.55;4216358;83;21099;-82
2021/10/19 18:06:36;;;;;;;22.22;14.33;;;;;;;11.28;69.89;99668.92;4213553;83;21016;-82
2021/10/19 18:12:38;;;;;;;16.97;11.53;;;;;;;11.23;70.05;99669.80;4226113;83;21040;-81
2021/10/19 18:18:39;;;;;;;20.77;10.78;;;;;;;11.15;70.25;99672.97;4219012;83;21077;-81
2021/10/19 18:24:41;;;;;;;20.35;11.03;;;;;;;10.99;70.71;99671.67;4233877;82;21627;-81
2021/10/19 18:30:45;;;;;;;35.20;16.67;;;;;;;10.87;71.29;99671.03;4261602;83;21051;-82
2021/10/19 18:36:46;;;;;;;37.98;18.62;;;;;;;10.79;71.48;99659.14;4253409;83;21004;-82
2021/10/19 18:42:51;;;;;;;32.20;18.57;;;;;;;10.70;71.79;99664.05;4244068;83;21598;-82
2021/10/19 18:48:54;;;;;;;41.75;20.15;;;;;;;10.60;72.10;99663.23;4262963;83;21059;-83
2021/10/19 18:54:56;;;;;;;41.15;19.90;;;;;;;10.49;72.32;99668.28;4258844;83;22006;-83
2021/10/19 19:00:57;;;;;;;35.85;17.62;;;;;;;10.41;72.58;99659.13;4269087;83;21055;-81
2021/10/19 19:06:59;;;;;;;36.83;18.32;;;;;;;10.35;72.92;99657.79;4255917;83;21056;-83
2021/10/19 19:13:00;;;;;;;33.45;18.32;;;;;;;10.28;73.38;99654.11;4257598;83;21051;-82
2021/10/19 19:19:02;;;;;;;33.55;17.17;;;;;;;10.19;73.80;99645.31;4253022;82;21511;-82
2021/10/19 19:25:05;;;;;;;25.23;12.70;;;;;;;10.07;74.18;99646.20;4245404;82;21529;-81
2021/10/19 19:31:07;;;;;;;35.00;17.98;;;;;;;9.91;74.09;99641.88;4212957;82;22266;-82
2021/10/19 19:37:11;;;;;;;29.82;16.27;;;;;;;9.93;74.81;99640.97;4220120;83;21644;-82
2021/10/19 19:43:13;;;;;;;27.27;14.95;;;;;;;9.91;75.11;99640.52;4224862;82;21052;-82
2021/10/19 19:49:20;;;;;;;26.42;13.83;;;;;;;9.91;75.49;99643.25;4103604;85;21089;-81
2021/10/19 19:55:24;;;;;;;29.35;14.33;;;;;;;9.88;75.48;99633.02;4178232;82;21122;-81
2021/10/19 20:01:26;;;;;;;20.55;11.18;;;;;;;9.90;76.13;99631.52;4200071;83;21036;-82
2021/10/19 20:07:30;;;;;;;17.95;8.53;;;;;;;9.93;75.74;99633.53;4207810;82;21063;-82
2021/10/19 20:13:31;;;;;;;17.42;9.75;;;;;;;10.08;75.19;99623.19;4215965;82;21512;-82
2021/10/19 20:19:33;;;;;;;21.12;11.40;;;;;;;10.16;75.15;99629.05;4204303;82;21033;-81
2021/10/19 20:25:34;;;;;;;21.85;10.18;;;;;;;10.07;75.52;99621.58;4092107;82;9999644;-81
2021/10/19 20:31:35;;;;;;;22.02;9.88;;;;;;;10.00;76.11;99619.23;4201653;83;21894;-83
2021/10/19 20:37:37;;;;;;;18.17;9.93;;;;;;;10.01;75.99;99616.14;4209294;83;20992;-82
2021/10/19 20:43:39;;;;;;;17.50;8.55;;;;;;;10.05;76.14;99611.56;4207496;83;21018;-81
2021/10/19 20:49:41;;;;;;;20.90;9.28;;;;;;;9.99;76.16;99610.22;4226704;83;21115;-81
2021/10/19 20:55:43;;;;;;;18.32;8.30;;;;;;;9.95;76.32;99604.45;4197696;83;21088;-81
2021/10/19 21:01:44;;;;;;;16.10;7.55;;;;;;;9.89;76.41;99606.69;4205418;82;21079;-82
2021/10/19 21:07:46;;;;;;;19.40;7.80;;;;;;;9.84;76.42;99598.75;4209875;83;21056;-81
2021/10/19 21:13:47;;;;;;;11.85;6.97;;;;;;;9.87;77.08;99589.03;4212882;83;21918;-80
2021/10/19 21:19:48;;;;;;;13.10;6.58;;;;;;;9.79;76.45;99579.88;4211548;82;21084;-81
2021/10/19 21:25:50;;;;;;;13.58;6.97;;;;;;;9.85;76.07;99577.09;4206048;82;21488;-81
2021/10/19 21:31:52;;;;;;;13.70;7.25;;;;;;;10.01;75.91;99574.31;4255102;83;21082;-80
2021/10/19 21:37:53;;;;;;;12.30;6.70;;;;;;;10.20;75.74;99565.61;4266196;82;20952;-81
2021/10/19 21:43:54;;;;;;;12.68;7.22;;;;;;;10.20;75.55;99557.96;4260954;83;21515;-81
2021/10/19 21:49:56;;;;;;;12.58;6.65;;;;;;;10.13;75.87;99555.09;4249867;83;21024;-81
2021/10/19 21:55:57;;;;;;;13.45;6.87;;;;;;;10.01;75.75;99551.87;4266416;82;21027;-82
2021/10/19 22:01:58;;;;;;;13.53;6.42;;;;;;;9.94;75.94;99555.02;4245957;83;21501;-82
2021/10/19 22:08:01;;;;;;;14.00;6.62;;;;;;;9.87;76.42;99548.81;4250685;83;21068;-81
2021/10/19 22:14:05;;;;;;;12.13;6.10;;;;;;;9.83;76.17;99546.59;4256879;83;21095;-81
2021/10/19 22:20:07;;;;;;;10.88;5.72;;;;;;;9.84;76.12;99534.49;4255173;82;21055;-82
2021/10/19 22:26:13;;;;;;;9.98;6.08;;;;;;;9.83;76.02;99532.12;4243548;82;21572;-82
2021/10/19 22:32:15;;;;;;;14.43;7.90;;;;;;;9.75;76.11;99522.97;4219829;83;21040;-82
2021/10/19 22:38:17;;;;;;;12.45;6.08;;;;;;;9.70;76.05;99512.30;4220200;83;21425;-82
2021/10/19 22:44:18;;;;;;;12.23;6.08;;;;;;;9.68;76.20;99511.86;4243562;81;21508;-83
2021/10/19 22:50:20;;;;;;;13.08;6.45;;;;;;;9.64;76.31;99506.89;4234272;82;21029;-82
2021/10/19 22:56:23;;;;;;;12.98;6.25;;;;;;;9.67;76.06;99495.81;4228357;81;21033;-83
2021/10/19 23:02:28;;;;;;;9.40;5.40;;;;;;;9.70;76.18;99500.56;4222746;83;21101;-82
2021/10/19 23:08:29;;;;;;;12.40;5.58;;;;;;;9.62;76.74;99496.88;4243294;83;21032;-81
2021/10/19 23:14:31;;;;;;;9.20;5.40;;;;;;;9.55;76.69;99492.64;4223017;82;21702;-82
2021/10/19 23:20:32;;;;;;;14.87;5.95;;;;;;;9.49;76.99;99486.64;4230509;82;21125;-82
2021/10/19 23:26:34;;;;;;;8.00;4.47;;;;;;;9.49;77.43;99480.38;4219189;82;21052;-83
2021/10/19 23:32:35;;;;;;;8.73;4.55;;;;;;;9.63;76.80;99477.98;4212576;82;22245;-81
2021/10/19 23:38:38;;;;;;;8.95;4.90;;;;;;;9.82;76.62;99466.28;4221200;83;21017;-80
2021/10/19 23:44:40;;;;;;;6.85;4.22;;;;;;;9.82;76.70;99470.39;4214558;82;21536;-82
2021/10/19 23:50:43;;;;;;;8.23;4.67;;;;;;;9.77;76.63;99459.73;4233679;83;21008;-81
2021/10/19 23:56:46;;;;;;;7.45;4.50;;;;;;;9.76;77.22;99453.45;4188500;83;21061;-81
